createdAt,value
2022-09-13T00:01:29.623Z,2.10
2022-09-13T00:03:56.581Z,2.00
2022-09-13T00:06:23.577Z,1.90
2022-09-13T00:08:51.081Z,2.00
2022-09-13T00:11:24.564Z,2.27
2022-09-13T00:13:52.558Z,2.20
2022-09-13T00:16:22.250Z,2.00
2022-09-13T00:18:49.591Z,1.80
2022-09-13T00:21:19.747Z,2.10
2022-09-13T00:23:48.826Z,2.00
2022-09-13T00:26:21.388Z,1.97
2022-09-13T00:28:53.208Z,2.00
2022-09-13T00:31:21.341Z,2.00
2022-09-13T00:33:48.216Z,1.80
2022-09-13T00:36:18.031Z,1.90
2022-09-13T00:38:45.001Z,1.90
2022-09-13T00:41:15.254Z,2.30
2022-09-13T00:43:46.495Z,2.40
2022-09-13T00:46:27.805Z,2.20
2022-09-13T00:49:01.091Z,2.20
2022-09-13T00:51:28.815Z,1.90
2022-09-13T00:53:59.671Z,2.03
2022-09-13T00:56:43.781Z,1.83
2022-09-13T00:59:16.148Z,2.10
2022-09-13T01:01:49.715Z,1.97
2022-09-13T01:04:20.313Z,2.20
2022-09-13T01:06:47.885Z,2.00
2022-09-13T01:09:15.705Z,2.00
2022-09-13T01:11:49.209Z,2.23
2022-09-13T01:14:19.027Z,1.90
2022-09-13T01:16:48.020Z,2.00
2022-09-13T01:19:15.513Z,1.90
2022-09-13T01:22:04.094Z,2.10
2022-09-13T01:24:30.899Z,2.37
2022-09-13T01:27:29.685Z,2.03
2022-09-13T01:30:09.159Z,2.00
2022-09-13T01:32:45.054Z,2.00
2022-09-13T01:35:18.620Z,1.90
2022-09-13T01:37:54.355Z,2.00
2022-09-13T01:40:24.334Z,2.00
2022-09-13T01:43:12.722Z,1.90
2022-09-13T01:46:01.413Z,2.40
2022-09-13T01:48:31.095Z,2.07
2022-09-13T01:51:06.761Z,2.20
2022-09-13T01:53:55.874Z,2.20
2022-09-13T01:56:35.222Z,2.50
2022-09-13T01:59:11.988Z,1.90
2022-09-13T02:02:03.519Z,1.73
2022-09-13T02:04:37.709Z,2.30
2022-09-13T02:07:09.549Z,2.00
2022-09-13T02:09:42.292Z,1.77
2022-09-13T02:12:20.250Z,2.00
2022-09-13T02:14:58.802Z,2.00
2022-09-13T02:17:30.995Z,2.10
2022-09-13T02:20:01.574Z,1.97
2022-09-13T02:22:33.443Z,2.10
2022-09-13T02:25:06.740Z,1.80
2022-09-13T02:27:36.829Z,1.80
2022-09-13T02:30:08.995Z,1.93
2022-09-13T02:32:40.750Z,2.20
2022-09-13T02:35:16.526Z,1.80
2022-09-13T02:37:47.241Z,2.00
2022-09-13T02:40:23.420Z,2.00
2022-09-13T02:42:56.612Z,1.90
2022-09-13T02:45:31.852Z,1.90
2022-09-13T02:48:10.366Z,2.97
2022-09-13T02:51:03.415Z,2.00
2022-09-13T02:53:43.986Z,2.10
2022-09-13T02:56:30.311Z,2.00
2022-09-13T02:59:14.902Z,2.30
2022-09-13T03:01:45.989Z,2.30
2022-09-13T03:04:12.917Z,2.10
2022-09-13T03:06:40.743Z,2.30
2022-09-13T03:09:08.511Z,2.50
2022-09-13T03:11:54.236Z,2.30
2022-09-13T03:14:32.816Z,2.30
2022-09-13T03:17:20.752Z,2.00
2022-09-13T03:20:10.224Z,2.20
2022-09-13T03:22:58.606Z,2.00
2022-09-13T03:25:37.365Z,2.20
2022-09-13T03:28:24.514Z,2.47
2022-09-13T03:31:00.185Z,2.50
2022-09-13T03:33:48.930Z,2.20
2022-09-13T03:36:25.102Z,2.30
2022-09-13T03:39:14.866Z,2.00
2022-09-13T03:41:47.218Z,2.07
2022-09-13T03:44:16.802Z,2.63
2022-09-13T03:46:49.940Z,2.50
2022-09-13T03:49:18.474Z,2.40
2022-09-13T03:51:48.417Z,2.20
2022-09-13T03:54:22.143Z,2.43
2022-09-13T03:57:19.225Z,2.30
2022-09-13T03:59:52.305Z,2.50
2022-09-13T04:02:20.527Z,2.50
2022-09-13T04:04:48.537Z,2.30
2022-09-13T04:07:20.945Z,2.30
2022-09-13T04:09:47.952Z,5.60
2022-09-13T04:12:16.644Z,5.10
2022-09-13T04:14:44.122Z,4.10
2022-09-13T04:17:12.173Z,3.53
2022-09-13T04:19:39.653Z,2.90
2022-09-13T04:22:06.653Z,2.37
2022-09-13T04:24:33.673Z,2.87
2022-09-13T04:27:02.003Z,2.30
2022-09-13T04:29:29.016Z,3.40
2022-09-13T04:31:56.246Z,2.50
2022-09-13T04:34:23.922Z,2.40
2022-09-13T04:36:52.624Z,2.20
2022-09-13T04:39:20.386Z,2.40
2022-09-13T04:41:48.878Z,2.73
2022-09-13T04:44:17.144Z,2.70
2022-09-13T04:46:48.344Z,2.33
2022-09-13T04:49:16.740Z,2.70
2022-09-13T04:51:43.896Z,2.50
2022-09-13T04:54:15.332Z,2.47
2022-09-13T04:56:43.484Z,2.53
2022-09-13T04:59:11.029Z,3.20
2022-09-13T05:01:38.548Z,2.93
2022-09-13T05:04:07.221Z,2.93
2022-09-13T05:06:34.537Z,2.60
2022-09-13T05:09:01.967Z,3.07
2022-09-13T05:11:29.857Z,3.00
2022-09-13T05:13:58.750Z,2.70
2022-09-13T05:16:28.748Z,2.70
2022-09-13T05:18:56.067Z,2.97
2022-09-13T05:21:24.838Z,3.33
2022-09-13T05:23:54.084Z,3.30
2022-09-13T05:26:22.688Z,3.40
2022-09-13T05:28:49.808Z,3.23
2022-09-13T05:31:24.685Z,3.30
2022-09-13T05:34:07.314Z,3.10
2022-09-13T05:36:34.926Z,4.00
2022-09-13T05:41:49.480Z,4.00
2022-09-13T05:44:16.353Z,4.10
2022-09-13T05:46:46.310Z,4.20
2022-09-13T05:49:13.887Z,3.90
2022-09-13T05:51:40.835Z,3.67
2022-09-13T05:54:07.655Z,3.70
2022-09-13T05:56:34.625Z,4.37
2022-09-13T05:59:01.409Z,3.70
2022-09-13T06:01:29.166Z,4.10
2022-09-13T06:03:57.968Z,3.20
2022-09-13T06:06:25.530Z,4.53
2022-09-13T06:08:53.868Z,3.83
2022-09-13T06:11:20.954Z,3.30
2022-09-13T06:13:47.775Z,3.60
2022-09-13T06:16:16.976Z,3.70
2022-09-13T06:18:44.627Z,3.33
2022-09-13T06:21:20.163Z,4.33
2022-09-13T06:23:48.816Z,3.20
2022-09-13T06:26:17.588Z,5.40
2022-09-13T06:28:51.584Z,5.20
2022-09-13T06:31:21.182Z,4.83
2022-09-13T06:33:48.392Z,5.03
2022-09-13T06:36:18.579Z,5.53
2022-09-13T06:38:46.648Z,5.27
2022-09-13T06:41:15.906Z,4.70
2022-09-13T06:43:42.947Z,5.27
2022-09-13T06:46:15.291Z,5.20
2022-09-13T06:48:44.288Z,5.67
2022-09-13T06:51:14.222Z,7.90
2022-09-13T06:53:45.727Z,6.97
2022-09-13T06:56:16.150Z,9.70
2022-09-13T06:58:45.014Z,12.77
2022-09-13T07:01:21.290Z,11.33
2022-09-13T07:03:51.065Z,11.07
2022-09-13T07:06:22.544Z,11.13
2022-09-13T07:08:51.255Z,9.57
2022-09-13T07:11:20.108Z,8.93
2022-09-13T07:13:50.695Z,9.27
2022-09-13T07:16:18.990Z,10.30
2022-09-13T07:18:50.606Z,9.50
2022-09-13T07:21:18.269Z,9.80
2022-09-13T07:23:45.060Z,9.10
2022-09-13T07:26:11.925Z,7.83
2022-09-13T07:28:43.480Z,7.40
2022-09-13T07:31:14.845Z,7.90
2022-09-13T07:33:43.366Z,7.93
2022-09-13T07:36:12.077Z,7.50
2022-09-13T07:38:41.203Z,6.97
2022-09-13T07:41:14.526Z,7.60
2022-09-13T07:43:41.428Z,6.87
2022-09-13T07:46:14.670Z,7.53
2022-09-13T07:48:43.720Z,6.80
2022-09-13T07:51:15.054Z,6.27
2022-09-13T07:53:43.279Z,6.37
2022-09-13T07:56:16.211Z,5.90
2022-09-13T07:58:45.045Z,5.73
2022-09-13T08:01:24.589Z,6.10
2022-09-13T08:03:56.830Z,8.13
2022-09-13T08:06:25.170Z,7.47
2022-09-13T08:08:52.227Z,7.23
2022-09-13T08:11:21.893Z,6.10
2022-09-13T08:13:50.234Z,6.10
2022-09-13T08:16:22.830Z,6.97
2022-09-13T08:18:52.705Z,6.80
2022-09-13T08:21:20.808Z,6.47
2022-09-13T08:23:48.002Z,7.43
2022-09-13T08:26:15.406Z,6.50
2022-09-13T08:28:42.995Z,6.53
2022-09-13T08:31:13.932Z,7.07
2022-09-13T08:33:47.358Z,6.60
2022-09-13T08:36:15.744Z,6.20
2022-09-13T08:38:54.274Z,6.00
2022-09-13T08:41:39.962Z,6.00
2022-09-13T08:44:34.645Z,6.20
2022-09-13T08:47:22.000Z,5.50
2022-09-13T08:49:52.241Z,6.50
2022-09-13T08:52:58.085Z,5.63
2022-09-13T08:55:45.525Z,6.23
2022-09-13T08:58:57.040Z,5.50
2022-09-13T09:01:59.508Z,5.37
2022-09-13T09:04:26.499Z,6.63
2022-09-13T09:07:09.019Z,6.13
2022-09-13T09:09:44.881Z,5.90
2022-09-13T09:12:41.576Z,5.60
2022-09-13T09:15:36.011Z,5.70
2022-09-13T09:18:14.347Z,6.17
2022-09-13T09:20:44.513Z,9.70
2022-09-13T09:23:21.987Z,6.20
2022-09-13T09:25:56.246Z,4.00
2022-09-13T09:28:23.123Z,3.47
2022-09-13T09:31:19.808Z,3.60
2022-09-13T09:34:14.544Z,3.10
2022-09-13T09:36:44.489Z,3.00
2022-09-13T09:39:16.169Z,3.13
2022-09-13T09:41:46.578Z,2.53
2022-09-13T09:44:28.698Z,2.50
2022-09-13T09:46:59.672Z,2.30
2022-09-13T09:49:56.581Z,2.50
2022-09-13T09:53:01.266Z,2.27
2022-09-13T09:56:12.756Z,2.30
2022-09-13T09:58:42.161Z,2.30
2022-09-13T10:01:29.418Z,3.73
2022-09-13T10:04:11.238Z,3.30
2022-09-13T10:06:42.381Z,3.30
2022-09-13T10:09:23.153Z,3.27
2022-09-13T10:11:56.632Z,3.00
2022-09-13T10:14:34.765Z,3.10
2022-09-13T10:17:17.550Z,2.70
2022-09-13T10:20:03.002Z,3.57
2022-09-13T10:22:32.045Z,3.17
2022-09-13T10:25:25.469Z,3.00
2022-09-13T10:27:55.509Z,2.70
2022-09-13T10:30:34.184Z,2.70
2022-09-13T10:33:01.896Z,2.70
2022-09-13T10:35:29.858Z,2.47
2022-09-13T10:37:56.737Z,2.50
2022-09-13T10:40:30.480Z,2.53
2022-09-13T10:42:59.406Z,2.60
2022-09-13T10:45:30.617Z,2.80
2022-09-13T10:48:16.858Z,2.60
2022-09-13T10:51:05.476Z,2.87
2022-09-13T10:53:40.871Z,2.40
2022-09-13T10:56:22.268Z,2.90
2022-09-13T10:58:49.819Z,3.00
2022-09-13T11:01:40.285Z,2.70
2022-09-13T11:04:31.776Z,2.70
2022-09-13T11:07:18.014Z,2.70
2022-09-13T11:09:53.366Z,2.53
2022-09-13T11:12:38.419Z,3.00
2022-09-13T11:15:24.190Z,2.87
2022-09-13T11:18:26.252Z,2.90
2022-09-13T11:21:08.373Z,2.83
2022-09-13T11:23:53.884Z,2.70
2022-09-13T11:26:20.622Z,3.00
2022-09-13T11:29:25.795Z,3.13
2022-09-13T11:32:13.309Z,2.63
2022-09-13T11:34:56.889Z,2.50
2022-09-13T11:37:42.236Z,2.80
2022-09-13T11:40:26.226Z,2.90
2022-09-13T11:43:15.713Z,2.30
2022-09-13T11:45:56.470Z,2.50
2022-09-13T11:48:41.472Z,2.63
2022-09-13T11:51:26.030Z,2.73
2022-09-13T11:54:07.906Z,2.70
2022-09-13T11:56:43.725Z,2.67
2022-09-13T11:59:24.944Z,2.83
2022-09-13T12:01:57.217Z,2.53
2022-09-13T12:04:34.456Z,2.40
2022-09-13T12:07:06.328Z,2.60
2022-09-13T12:09:38.634Z,2.77
2022-09-13T12:12:15.783Z,3.10
2022-09-13T12:15:05.282Z,2.50
2022-09-13T12:17:39.456Z,2.57
2022-09-13T12:20:26.696Z,2.70
2022-09-13T12:22:55.883Z,2.70
2022-09-13T12:25:26.097Z,3.00
2022-09-13T12:28:02.700Z,3.13
2022-09-13T12:30:42.468Z,3.00
2022-09-13T12:33:09.411Z,2.80
2022-09-13T12:35:55.577Z,3.27
2022-09-13T12:39:01.168Z,6.37
2022-09-13T12:41:49.356Z,4.87
2022-09-13T12:44:34.646Z,12.90
2022-09-13T12:47:28.799Z,5.70
2022-09-13T12:53:16.334Z,2.60
2022-09-13T12:56:02.216Z,2.80
2022-09-13T12:59:10.262Z,2.70
2022-09-13T13:01:38.219Z,3.30
2022-09-13T13:04:10.387Z,2.63
2022-09-13T13:06:49.385Z,3.07
2022-09-13T13:09:35.938Z,2.70
2022-09-13T13:12:03.627Z,2.60
2022-09-13T13:14:39.512Z,2.60
2022-09-13T13:17:34.597Z,2.60
2022-09-13T13:20:22.104Z,2.77
2022-09-13T13:22:50.270Z,2.47
2022-09-13T13:25:39.223Z,2.37
2022-09-13T13:28:43.364Z,2.40
2022-09-13T13:31:25.267Z,2.80
2022-09-13T13:34:02.976Z,2.30
2022-09-13T13:36:35.789Z,2.60
2022-09-13T13:39:03.208Z,2.27
2022-09-13T13:41:32.977Z,2.70
2022-09-13T13:44:00.733Z,2.30
2022-09-13T13:46:31.181Z,2.33
2022-09-13T13:49:31.264Z,2.60
2022-09-13T13:52:22.314Z,2.60
2022-09-13T13:54:55.238Z,2.50
2022-09-13T13:57:40.101Z,2.40
2022-09-13T14:00:09.951Z,2.40
2022-09-13T14:03:08.292Z,2.60
2022-09-13T14:05:55.780Z,3.17
2022-09-13T14:08:41.302Z,2.20
2022-09-13T14:11:25.170Z,2.10
2022-09-13T14:14:06.878Z,2.20
2022-09-13T14:16:59.995Z,2.20
2022-09-13T14:19:34.290Z,2.20
2022-09-13T14:22:23.082Z,2.50
2022-09-13T14:24:52.312Z,2.20
2022-09-13T14:27:26.000Z,2.10
2022-09-13T14:30:05.957Z,2.43
2022-09-13T14:32:42.180Z,2.27
2022-09-13T14:35:25.869Z,2.10
2022-09-13T14:37:53.243Z,2.43
2022-09-13T14:40:26.693Z,2.30
2022-09-13T14:42:54.819Z,2.30
2022-09-13T14:45:31.088Z,2.60
2022-09-13T14:48:04.273Z,2.30
2022-09-13T14:50:40.039Z,2.20
2022-09-13T14:53:14.189Z,2.33
2022-09-13T14:55:44.886Z,2.40
2022-09-13T14:58:22.848Z,2.70
2022-09-13T15:00:55.358Z,2.30
2022-09-13T15:03:22.835Z,2.50
2022-09-13T15:05:58.363Z,2.50
2022-09-13T15:08:34.556Z,2.30
2022-09-13T15:11:07.904Z,2.67
2022-09-13T15:13:35.197Z,2.67
2022-09-13T15:16:02.814Z,2.40
2022-09-13T15:18:36.919Z,2.30
2022-09-13T15:21:06.492Z,2.43
2022-09-13T15:23:35.190Z,2.70
2022-09-13T15:26:12.060Z,2.30
2022-09-13T15:28:44.762Z,2.30
2022-09-13T15:31:24.296Z,2.70
2022-09-13T15:34:22.280Z,2.97
2022-09-13T15:37:07.797Z,3.77
2022-09-13T15:40:02.054Z,2.87
2022-09-13T15:42:28.920Z,2.90
2022-09-13T15:44:56.920Z,2.50
2022-09-13T15:47:23.965Z,2.43
2022-09-13T15:49:52.123Z,2.40
2022-09-13T15:52:20.389Z,2.70
2022-09-13T15:54:51.552Z,2.73
2022-09-13T15:57:22.470Z,2.60
2022-09-13T15:59:49.546Z,2.63
2022-09-13T16:02:22.492Z,3.07
2022-09-13T16:04:49.921Z,2.57
2022-09-13T16:07:17.668Z,2.70
2022-09-13T16:09:45.548Z,2.77
2022-09-13T16:12:12.550Z,3.10
2022-09-13T16:14:39.609Z,2.90
2022-09-13T16:17:11.449Z,15.57
2022-09-13T16:19:38.380Z,3.53
2022-09-13T16:22:07.004Z,2.90
2022-09-13T16:24:37.931Z,2.83
2022-09-13T16:27:05.340Z,2.57
2022-09-13T16:29:32.134Z,2.50
2022-09-13T16:32:01.639Z,2.33
2022-09-13T16:34:28.423Z,2.30
2022-09-13T16:36:55.386Z,2.50
2022-09-13T16:39:22.213Z,2.40
2022-09-13T16:41:49.102Z,2.37
2022-09-13T16:44:16.127Z,2.40
2022-09-13T16:46:43.640Z,2.40
2022-09-13T16:49:11.104Z,2.40
2022-09-13T16:51:38.389Z,2.67
2022-09-13T16:54:05.999Z,2.80
2022-09-13T16:56:32.855Z,2.70
2022-09-13T16:58:59.674Z,3.07
2022-09-13T17:01:28.211Z,2.80
2022-09-13T17:03:56.069Z,2.70
2022-09-13T17:06:24.219Z,2.80
2022-09-13T17:08:55.476Z,2.50
2022-09-13T17:11:24.256Z,2.60
2022-09-13T17:13:51.971Z,2.80
2022-09-13T17:16:31.615Z,2.60
2022-09-13T17:19:00.798Z,2.53
2022-09-13T17:21:28.686Z,2.63
2022-09-13T17:23:55.916Z,2.87
2022-09-13T17:26:23.104Z,2.77
2022-09-13T17:28:50.032Z,2.63
2022-09-13T17:31:17.002Z,2.60
2022-09-13T17:33:44.051Z,2.90
2022-09-13T17:36:13.589Z,3.27
2022-09-13T17:38:41.712Z,3.10
2022-09-13T17:41:12.809Z,2.70
2022-09-13T17:43:41.910Z,2.60
2022-09-13T17:46:12.182Z,3.10
2022-09-13T17:48:39.839Z,3.07
2022-09-13T17:51:10.326Z,3.07
2022-09-13T17:53:42.389Z,3.10
2022-09-13T17:56:09.377Z,2.80
2022-09-13T17:58:36.666Z,2.77
2022-09-13T18:01:08.829Z,3.10
2022-09-13T18:03:37.521Z,2.93
2022-09-13T18:06:06.370Z,2.53
2022-09-13T18:08:35.061Z,2.23
2022-09-13T18:11:22.201Z,2.30
2022-09-13T18:13:50.705Z,2.50
2022-09-13T18:16:21.742Z,2.50
2022-09-13T18:18:50.668Z,2.43
2022-09-13T18:21:22.867Z,2.40
2022-09-13T18:23:52.179Z,2.20
2022-09-13T18:26:21.798Z,2.43
2022-09-13T18:28:55.948Z,2.50
2022-09-13T18:31:23.985Z,2.37
2022-09-13T18:33:56.733Z,2.30
2022-09-13T18:36:24.588Z,3.00
2022-09-13T18:38:53.177Z,2.60
2022-09-13T18:41:29.899Z,2.67
2022-09-13T18:43:57.153Z,2.93
2022-09-13T18:46:26.963Z,2.60
2022-09-13T18:48:57.167Z,2.40
2022-09-13T18:51:27.261Z,2.60
2022-09-13T18:53:55.697Z,2.60
2022-09-13T18:56:23.497Z,2.70
2022-09-13T18:58:52.437Z,2.40
2022-09-13T19:01:25.849Z,2.47
2022-09-13T19:03:55.675Z,2.57
2022-09-13T19:06:26.070Z,2.70
2022-09-13T19:08:54.528Z,2.47
2022-09-13T19:11:45.225Z,2.70
2022-09-13T19:14:12.789Z,2.90
2022-09-13T19:16:39.699Z,2.70
2022-09-13T19:19:06.581Z,3.00
2022-09-13T19:21:34.075Z,3.07
2022-09-13T19:24:05.189Z,2.67
2022-09-13T19:26:37.786Z,2.60
2022-09-13T19:29:11.658Z,2.40
2022-09-13T19:31:41.409Z,2.70
2022-09-13T19:34:09.215Z,2.53
2022-09-13T19:36:39.080Z,2.40
2022-09-13T19:39:07.381Z,2.37
2022-09-13T19:41:36.050Z,2.50
2022-09-13T19:44:04.402Z,2.63
2022-09-13T19:46:37.810Z,2.40
2022-09-13T19:49:05.787Z,2.30
2022-09-13T19:51:35.645Z,2.40
2022-09-13T19:54:03.684Z,2.57
2022-09-13T19:56:38.025Z,2.80
2022-09-13T19:59:07.191Z,2.70
2022-09-13T20:01:40.020Z,3.97
2022-09-13T20:04:12.629Z,3.17
2022-09-13T20:06:40.945Z,2.60
2022-09-13T20:09:09.412Z,2.63
2022-09-13T20:11:42.233Z,2.63
2022-09-13T20:14:10.725Z,2.50
2022-09-13T20:16:39.516Z,2.50
2022-09-13T20:19:36.297Z,2.50
2022-09-13T20:21:58.007Z,2.70
2022-09-13T20:24:25.567Z,2.67
2022-09-13T20:26:52.388Z,2.70
2022-09-13T20:29:19.410Z,3.37
2022-09-13T20:31:46.253Z,2.70
2022-09-13T20:34:15.146Z,2.50
2022-09-13T20:36:44.339Z,2.50
2022-09-13T20:39:11.430Z,2.90
2022-09-13T20:41:38.466Z,2.40
2022-09-13T20:44:05.386Z,2.50
2022-09-13T20:46:32.316Z,2.57
2022-09-13T20:48:59.471Z,2.50
2022-09-13T20:51:29.558Z,2.30
2022-09-13T20:54:00.625Z,2.40
2022-09-13T20:56:33.888Z,2.70
2022-09-13T20:59:01.294Z,2.83
2022-09-13T21:01:29.750Z,2.60
2022-09-13T21:03:57.275Z,2.70
2022-09-13T21:06:26.203Z,2.80
2022-09-13T21:08:54.031Z,2.83
2022-09-13T21:11:24.236Z,2.50
2022-09-13T21:13:53.664Z,2.70
2022-09-13T21:16:26.101Z,2.53
2022-09-13T21:18:54.410Z,2.77
2022-09-13T21:21:26.819Z,2.70
2022-09-13T21:23:56.697Z,2.67
2022-09-13T21:26:26.879Z,2.80
2022-09-13T21:28:55.001Z,2.70
2022-09-13T21:31:25.182Z,2.87
2022-09-13T21:34:00.493Z,2.70
2022-09-13T21:36:28.182Z,3.00
2022-09-13T21:38:56.278Z,2.70
2022-09-13T21:41:25.230Z,2.60
2022-09-13T21:43:52.344Z,2.57
2022-09-13T21:46:22.198Z,2.50
2022-09-13T21:48:52.490Z,2.47
2022-09-13T21:51:28.551Z,2.50
2022-09-13T21:53:58.953Z,2.53
2022-09-13T21:56:28.226Z,2.77
2022-09-13T21:58:58.543Z,3.00
2022-09-13T22:01:28.393Z,2.97
2022-09-13T22:03:55.722Z,2.63
2022-09-13T22:06:23.586Z,2.97
2022-09-13T22:08:56.304Z,2.77
2022-09-13T22:11:26.976Z,2.70
2022-09-13T22:13:54.457Z,3.00
2022-09-13T22:16:27.195Z,3.00
2022-09-13T22:18:56.633Z,3.20
2022-09-13T22:21:29.592Z,2.80
2022-09-13T22:23:56.920Z,2.63
2022-09-13T22:26:26.230Z,2.53
2022-09-13T22:28:54.496Z,3.10
2022-09-13T22:31:22.808Z,3.00
2022-09-13T22:33:51.131Z,3.70
2022-09-13T22:36:19.497Z,3.47
2022-09-13T22:38:50.892Z,3.40
2022-09-13T22:41:28.355Z,3.73
2022-09-13T22:43:56.068Z,4.23
2022-09-13T22:46:28.089Z,5.00
2022-09-13T22:48:55.843Z,3.83
2022-09-13T22:51:23.256Z,4.30
2022-09-13T22:53:52.059Z,4.27
2022-09-13T22:56:33.235Z,3.97
2022-09-13T22:59:07.427Z,3.80
2022-09-13T23:01:35.039Z,4.17
2022-09-13T23:04:02.504Z,4.33
2022-09-13T23:06:29.928Z,3.90
2022-09-13T23:09:00.096Z,3.90
2022-09-13T23:11:30.056Z,5.00
2022-09-13T23:14:00.906Z,4.80
2022-09-13T23:16:33.484Z,4.90
2022-09-13T23:19:00.999Z,5.23
2022-09-13T23:21:31.554Z,6.20
2022-09-13T23:24:00.130Z,5.03
2022-09-13T23:26:27.501Z,5.80
2022-09-13T23:28:57.161Z,6.30
2022-09-13T23:31:33.018Z,5.20
2022-09-13T23:34:02.898Z,5.07
2022-09-13T23:36:34.631Z,5.30
2022-09-13T23:39:04.602Z,5.30
2022-09-13T23:41:33.348Z,5.20
2022-09-13T23:44:01.579Z,5.10
2022-09-13T23:46:29.144Z,4.60
2022-09-13T23:48:56.533Z,4.50
2022-09-13T23:51:25.308Z,5.33
2022-09-13T23:53:57.764Z,4.70
2022-09-13T23:56:25.940Z,5.10
2022-09-13T23:58:52.971Z,4.83
